Time;durP1;ratioP1;P1;durP2;ratioP2;P2;SDS_P1;SDS_P2;PMS_P1;PMS_P2;Temp;Humidity;BMP_temperature;BMP_pressure;BME280_temperature;BME280_humidity;BME280_pressure;Samples;Min_cycle;Max_cycle;Signal;HPM_P1;HPM_P2
2021/03/24 00:00:13;;;;;;;;;;;;;;;8.83;38.28;101380.47;5132843;27;19920;-80
2021/03/24 00:02:58;;;;;;;;;;;;;;;8.91;37.88;101390.69;5138551;27;19920;-81
2021/03/24 00:05:51;;;;;;;;;;;;;;;8.81;38.02;101383.47;5131697;27;19915;-80
2021/03/24 00:08:35;;;;;;;;;;;;;;;8.84;38.27;101388.31;5115691;27;19915;-80
2021/03/24 00:11:20;;;;;;;;;;;;;;;8.85;37.99;101392.63;5138033;27;20289;-83
2021/03/24 00:14:08;;;;;;;;;;;;;;;8.44;38.91;101392.22;5140260;27;19916;-82
2021/03/24 00:16:54;;;;;;;;;;;;;;;8.27;39.18;101394.50;5132730;27;20409;-79
2021/03/24 00:19:39;;;;;;;;;;;;;;;8.40;39.67;101388.44;5129146;27;19919;-79
2021/03/24 00:22:23;;;;;;;;;;;;;;;8.31;39.30;101389.34;5135377;27;19920;-81
2021/03/24 00:25:09;;;;;;;;;;;;;;;8.18;39.43;101394.28;5122057;27;19915;-81
2021/03/24 00:27:54;;;;;;;;;;;;;;;8.02;39.59;101394.69;5128157;27;19915;-81
2021/03/24 00:30:41;;;;;;;;;;;;;;;7.88;39.98;101390.97;5128179;27;19923;-82
2021/03/24 00:33:26;;;;;;;;;;;;;;;8.04;39.50;101389.78;5128024;27;19915;-79
2021/03/24 00:36:10;;;;;;;;;;;;;;;8.00;39.91;101391.44;5137067;27;19919;-80
2021/03/24 00:38:55;;;;;;;;;;;;;;;7.89;40.45;101392.59;5139537;27;19915;-80
2021/03/24 00:41:40;;;;;;;;;;;;;;;7.98;39.90;101393.59;5121219;27;19945;-80
2021/03/24 00:44:25;;;;;;;;;;;;;;;7.60;40.79;101390.59;5115604;27;19916;-81
2021/03/24 00:47:10;;;;;;;;;;;;;;;7.61;40.69;101388.72;5127598;27;19916;-81
2021/03/24 00:49:55;;;;;;;;;;;;;;;7.58;40.99;101386.53;5112125;27;20397;-77
2021/03/24 00:52:40;;;;;;;;;;;;;;;7.40;41.13;101382.59;5127932;27;19924;-81
2021/03/24 00:55:24;;;;;;;;;;;;;;;7.77;40.42;101386.72;5136546;27;19923;-79
2021/03/24 00:58:09;;;;;;;;;;;;;;;7.58;40.80;101389.25;5134757;27;19919;-79
2021/03/24 01:00:54;;;;;;;;;;;;;;;7.58;41.09;101386.53;5133182;27;19919;-79
2021/03/24 01:03:39;;;;;;;;;;;;;;;7.35;40.85;101388.00;5130398;27;19927;-81
2021/03/24 01:06:24;;;;;;;;;;;;;;;7.19;41.32;101379.16;5141654;27;19915;-80
2021/03/24 01:09:09;;;;;;;;;;;;;;;7.22;41.37;101384.00;5131543;27;19915;-80
2021/03/24 01:11:54;;;;;;;;;;;;;;;7.51;40.91;101380.63;5130385;27;19919;-81
2021/03/24 01:14:38;;;;;;;;;;;;;;;7.26;41.31;101384.28;5129506;27;19916;-80
2021/03/24 01:17:23;;;;;;;;;;;;;;;7.54;40.74;101382.78;5132955;27;19915;-81
2021/03/24 01:20:08;;;;;;;;;;;;;;;7.39;41.00;101388.25;5136488;27;19915;-80
2021/03/24 01:22:53;;;;;;;;;;;;;;;7.54;40.71;101377.38;5125662;27;19928;-81
2021/03/24 01:25:38;;;;;;;;;;;;;;;7.57;40.57;101374.91;5121155;27;19915;-80
2021/03/24 01:28:24;;;;;;;;;;;;;;;7.43;40.73;101379.31;5127108;27;20281;-79
2021/03/24 01:31:10;;;;;;;;;;;;;;;7.52;40.70;101383.03;5130657;27;19920;-81
2021/03/24 01:33:59;;;;;;;;;;;;;;;7.67;40.35;101377.56;5135649;27;19915;-81
2021/03/24 01:36:43;;;;;;;;;;;;;;;7.66;40.55;101384.09;5136858;27;19915;-80
2021/03/24 01:39:28;;;;;;;;;;;;;;;7.70;41.48;101379.72;5131851;27;19923;-79
2021/03/24 01:42:13;;;;;;;;;;;;;;;7.53;41.11;101379.25;5119286;27;20411;-80
2021/03/24 01:45:00;;;;;;;;;;;;;;;7.53;40.72;101379.25;5108607;27;19916;-80
2021/03/24 01:47:45;;;;;;;;;;;;;;;7.62;40.59;101379.47;5127740;27;19916;-81
2021/03/24 01:50:30;;;;;;;;;;;;;;;7.32;41.21;101383.13;5125821;27;19924;-79
2021/03/24 01:53:15;;;;;;;;;;;;;;;7.50;41.08;101370.91;5126038;27;20305;-81
2021/03/24 01:56:00;;;;;;;;;;;;;;;7.51;41.17;101370.63;5132341;27;19916;-83
2021/03/24 01:58:44;;;;;;;;;;;;;;;7.50;41.27;101371.72;5131998;27;19915;-80
2021/03/24 02:01:29;;;;;;;;;;;;;;;7.45;40.83;101365.50;5137923;27;19916;-81
2021/03/24 02:04:14;;;;;;;;;;;;;;;7.36;41.50;101365.28;5135025;27;19920;-80
2021/03/24 02:07:07;;;;;;;;;;;;;;;7.28;41.45;101369.38;5131209;27;19923;-81
2021/03/24 02:10:01;;;;;;;;;;;;;;;7.09;41.94;101367.56;5129620;27;19919;-79
2021/03/24 02:12:52;;;;;;;;;;;;;;;7.19;41.68;101368.31;5137164;27;19923;-82
2021/03/24 02:15:48;;;;;;;;;;;;;;;7.25;41.62;101369.94;5126489;27;19919;-81
2021/03/24 02:18:34;;;;;;;;;;;;;;;7.20;42.53;101364.53;5129218;27;19915;-81
2021/03/24 02:21:28;;;;;;;;;;;;;;;7.37;43.54;101364.19;5128205;27;19916;-80
2021/03/24 02:24:12;;;;;;;;;;;;;;;7.47;42.42;101369.53;5136576;27;20385;-80
2021/03/24 02:27:08;;;;;;;;;;;;;;;7.45;42.59;101360.09;5126724;27;20385;-82
2021/03/24 02:30:00;;;;;;;;;;;;;;;7.44;42.24;101364.69;5124102;27;19983;-80
2021/03/24 02:32:48;;;;;;;;;;;;;;;7.38;41.59;101360.41;5129052;27;20297;-82
2021/03/24 02:35:35;;;;;;;;;;;;;;;7.31;41.49;101368.81;5124739;27;20328;-79
2021/03/24 02:38:22;;;;;;;;;;;;;;;7.44;41.15;101364.69;5127950;27;20309;-82
2021/03/24 02:41:07;;;;;;;;;;;;;;;7.26;41.51;101370.75;5140815;27;20381;-80
2021/03/24 02:43:52;;;;;;;;;;;;;;;7.28;40.86;101369.38;5139480;27;19919;-81
2021/03/24 02:46:38;;;;;;;;;;;;;;;7.12;41.47;101367.00;5135888;27;19915;-79
2021/03/24 02:49:25;;;;;;;;;;;;;;;7.20;41.46;101367.25;5134104;27;19916;-79
2021/03/24 02:52:12;;;;;;;;;;;;;;;7.12;42.05;101372.41;5123378;27;19919;-79
2021/03/24 02:54:57;;;;;;;;;;;;;;;7.35;41.52;101369.06;5129167;27;20378;-79
2021/03/24 02:57:42;;;;;;;;;;;;;;;7.23;42.80;101372.09;5136470;27;19916;-78
2021/03/24 03:00:27;;;;;;;;;;;;;;;7.10;42.04;101371.88;5130271;27;20291;-80
2021/03/24 03:03:28;;;;;;;;;;;;;;;7.15;41.74;101371.88;5136883;27;19919;-80
2021/03/24 03:06:15;;;;;;;;;;;;;;;7.25;41.70;101378.06;5138432;27;19916;-79
2021/03/24 03:09:05;;;;;;;;;;;;;;;7.24;41.70;101365.59;5130771;27;19915;-80
2021/03/24 03:12:03;;;;;;;;;;;;;;;7.18;41.83;101368.59;5132726;27;19916;-81
2021/03/24 03:14:53;;;;;;;;;;;;;;;7.12;42.25;101373.22;5131750;27;20381;-81
2021/03/24 03:17:44;;;;;;;;;;;;;;;7.26;41.84;101370.75;5129679;27;20381;-81
2021/03/24 03:20:32;;;;;;;;;;;;;;;7.17;42.11;101365.06;5123804;27;19916;-81
2021/03/24 03:23:20;;;;;;;;;;;;;;;7.32;41.77;101367.72;5129023;27;19927;-78
2021/03/24 03:26:10;;;;;;;;;;;;;;;7.30;42.28;101361.78;5132457;27;19915;-80
2021/03/24 03:28:56;;;;;;;;;;;;;;;7.29;42.15;101362.88;5129094;27;19916;-79
2021/03/24 03:31:43;;;;;;;;;;;;;;;7.16;42.29;101359.97;5129486;27;19923;-82
2021/03/24 03:34:27;;;;;;;;;;;;;;;7.08;42.25;101366.75;5126173;27;19915;-82
2021/03/24 03:37:13;;;;;;;;;;;;;;;7.25;41.93;101356.41;5131431;27;19923;-83
2021/03/24 03:39:58;;;;;;;;;;;;;;;7.29;41.52;101356.66;5130000;27;19943;-81
2021/03/24 03:42:42;;;;;;;;;;;;;;;7.14;41.80;101360.22;5128034;27;19920;-81
2021/03/24 03:45:27;;;;;;;;;;;;;;;7.12;41.97;101369.69;5131625;27;19915;-79
2021/03/24 03:48:13;;;;;;;;;;;;;;;7.17;42.29;101365.06;5125110;27;19915;-82
2021/03/24 03:51:01;;;;;;;;;;;;;;;7.16;42.05;101368.88;5114898;27;19923;-80
2021/03/24 03:53:53;;;;;;;;;;;;;;;7.11;43.25;101370.81;5126646;27;19916;-81
2021/03/24 03:56:43;;;;;;;;;;;;;;;7.05;42.77;101377.31;5136076;27;19923;-80
2021/03/24 03:59:38;;;;;;;;;;;;;;;7.21;42.23;101370.75;5136953;27;20320;-82
2021/03/24 04:02:31;;;;;;;;;;;;;;;7.13;42.19;101369.44;5139422;27;19916;-82
2021/03/24 04:05:19;;;;;;;;;;;;;;;7.16;42.25;101362.66;5152178;22;19916;-85
2021/03/24 04:08:08;;;;;;;;;;;;;;;7.07;41.99;101375.13;5047100;28;20404;-84
2021/03/24 04:10:54;;;;;;;;;;;;;;;7.12;41.55;101373.22;5040976;28;20384;-85
2021/03/24 04:13:50;;;;;;;;;;;;;;;7.04;42.43;101375.69;5038690;28;19917;-85
2021/03/24 04:16:37;;;;;;;;;;;;;;;7.05;42.19;101374.59;5060754;28;19916;-85
2021/03/24 04:19:25;;;;;;;;;;;;;;;6.93;41.98;101377.59;5061867;28;19917;-85
2021/03/24 04:22:11;;;;;;;;;;;;;;;7.05;41.88;101377.31;5070426;28;19924;-85
2021/03/24 04:24:58;;;;;;;;;;;;;;;6.97;41.85;101384.06;5066526;28;20388;-86
2021/03/24 04:27:45;;;;;;;;;;;;;;;6.84;42.33;101382.78;5076233;28;19917;-86
2021/03/24 04:30:34;;;;;;;;;;;;;;;6.91;41.98;101385.16;5077989;28;20392;-84
2021/03/24 04:33:19;;;;;;;;;;;;;;;6.87;42.47;101394.91;5081367;28;19916;-87
2021/03/24 04:36:24;;;;;;;;;;;;;;;6.88;42.27;101399.25;5088669;28;19916;-86
2021/03/24 04:39:14;;;;;;;;;;;;;;;6.69;42.65;101390.91;5082821;28;19920;-87
2021/03/24 04:42:00;;;;;;;;;;;;;;;6.72;42.48;101395.75;5079993;28;19916;-86
2021/03/24 04:44:47;;;;;;;;;;;;;;;6.90;42.29;101385.47;5076808;28;20308;-87
2021/03/24 04:47:33;;;;;;;;;;;;;;;6.78;42.62;101391.16;5079285;28;19916;-86
2021/03/24 04:50:30;;;;;;;;;;;;;;;6.98;42.92;101395.69;5063753;28;19917;-87
2021/03/24 04:53:16;;;;;;;;;;;;;;;6.93;43.00;101395.72;5079022;28;19991;-85
2021/03/24 04:56:02;;;;;;;;;;;;;;;6.97;42.84;101391.38;5078251;28;19917;-85
2021/03/24 04:58:51;;;;;;;;;;;;;;;6.86;42.90;101402.22;5078579;28;19916;-86
2021/03/24 05:01:39;;;;;;;;;;;;;;;6.99;43.17;101394.63;5063731;28;20288;-84
2021/03/24 05:04:27;;;;;;;;;;;;;;;6.83;43.01;101401.97;5061717;28;19921;-85
2021/03/24 05:07:31;;;;;;;;;;;;;;;6.84;43.15;101403.59;5070305;28;19932;-85
2021/03/24 05:10:25;;;;;;;;;;;;;;;6.98;43.17;101411.91;5073555;28;19921;-85
2021/03/24 05:13:28;;;;;;;;;;;;;;;6.85;43.04;101416.03;5074700;28;19921;-86
2021/03/24 05:16:20;;;;;;;;;;;;;;;6.81;43.17;101410.31;5075198;28;19920;-85
2021/03/24 05:19:05;;;;;;;;;;;;;;;6.89;42.84;101417.09;5080001;28;20300;-85
2021/03/24 05:22:04;;;;;;;;;;;;;;;6.96;42.68;101419.50;5069623;28;20575;-85
2021/03/24 05:24:49;;;;;;;;;;;;;;;6.83;43.30;101420.88;5075977;28;19921;-85
2021/03/24 05:27:39;;;;;;;;;;;;;;;6.89;43.24;101427.91;5079934;28;20510;-86
2021/03/24 05:30:28;;;;;;;;;;;;;;;7.16;42.19;101416.75;5077137;28;19916;-85
2021/03/24 05:33:16;;;;;;;;;;;;;;;7.09;42.47;101427.03;5075339;28;20503;-83
2021/03/24 05:36:01;;;;;;;;;;;;;;;6.92;42.90;101426.53;5075313;28;19916;-85
2021/03/24 05:38:53;;;;;;;;;;;;;;;6.98;42.80;101420.03;5077042;28;20288;-84
2021/03/24 05:41:41;;;;;;;;;;;;;;;6.85;43.13;101430.34;5076222;28;19917;-84
2021/03/24 05:44:48;;;;;;;;;;;;;;;6.99;42.83;101438.69;5077254;28;19920;-84
2021/03/24 05:47:43;;;;;;;;;;;;;;;7.04;42.76;101435.16;5075374;28;19916;-85
2021/03/24 05:50:46;;;;;;;;;;;;;;;7.08;42.75;101431.63;5086004;28;19916;-84
2021/03/24 05:53:31;;;;;;;;;;;;;;;7.08;42.92;101436.22;5073917;28;19916;-85
2021/03/24 05:56:29;;;;;;;;;;;;;;;7.11;42.67;101441.13;5062885;28;19916;-85
2021/03/24 05:59:30;;;;;;;;;;;;;;;7.14;42.82;101437.84;5077434;28;19917;-85
2021/03/24 06:02:41;;;;;;;;;;;;;;;7.20;42.83;101439.47;5077388;28;19916;-85
2021/03/24 06:05:29;;;;;;;;;;;;;;;7.42;42.29;101442.63;5072806;28;19920;-85
2021/03/24 06:08:20;;;;;;;;;;;;;;;7.60;42.12;101452.03;5077034;28;19917;-85
2021/03/24 06:11:07;;;;;;;;;;;;;;;7.68;41.73;101457.69;5078068;28;19917;-85
2021/03/24 06:14:21;;;;;;;;;;;;;;;7.84;41.94;101461.13;5079334;28;20380;-86
2021/03/24 06:17:24;;;;;;;;;;;;;;;7.92;42.43;101459.75;5074557;28;20308;-86
2021/03/24 06:20:28;;;;;;;;;;;;;;;8.15;42.13;101459.06;5071963;28;19924;-83
2021/03/24 06:23:26;;;;;;;;;;;;;;;8.18;42.68;101466.59;5081032;28;19921;-85
2021/03/24 06:26:20;;;;;;;;;;;;;;;8.18;42.84;101462.00;5076566;28;20395;-84
2021/03/24 06:29:24;;;;;;;;;;;;;;;8.42;43.35;101473.00;5069259;28;20686;-83
2021/03/24 06:32:28;;;;;;;;;;;;;;;8.48;43.92;101473.78;5080999;28;19920;-82
2021/03/24 06:35:25;;;;;;;;;;;;;;;8.42;44.33;101475.72;5075316;28;19917;-83
2021/03/24 06:38:33;;;;;;;;;;;;;;;8.38;43.18;101482.75;5080601;28;19921;-83
2021/03/24 06:41:23;;;;;;;;;;;;;;;8.48;43.11;101481.91;5077263;28;19916;-83
2021/03/24 06:44:32;;;;;;;;;;;;;;;8.52;43.01;101480.25;5080858;28;19920;-83
2021/03/24 06:47:22;;;;;;;;;;;;;;;8.55;43.67;101479.66;5051439;28;19917;-83
2021/03/24 06:50:16;;;;;;;;;;;;;;;8.73;43.41;101481.72;5076764;28;19916;-84
2021/03/24 06:53:09;;;;;;;;;;;;;;;8.83;42.24;101484.34;5083003;28;19920;-83
2021/03/24 06:56:13;;;;;;;;;;;;;;;9.06;41.68;101490.09;5064962;28;19916;-83
2021/03/24 06:59:06;;;;;;;;;;;;;;;9.08;41.38;101496.84;5094294;28;19916;-86
2021/03/24 07:02:08;;;;;;;;;;;;;;;9.05;41.32;101499.31;5072127;28;19920;-87
2021/03/24 07:04:52;;;;;;;;;;;;;;;9.16;41.11;101498.94;5092911;28;19920;-88
2021/03/24 07:07:56;;;;;;;;;;;;;;;9.23;42.27;101502.13;5089642;28;19916;-87
2021/03/24 07:11:10;;;;;;;;;;;;;;;9.22;41.62;101508.66;5088510;28;19920;-86
2021/03/24 07:14:13;;;;;;;;;;;;;;;9.20;41.66;101507.31;5024283;28;19916;-86
2021/03/24 07:17:25;;;;;;;;;;;;;;;9.38;40.95;101503.88;5084400;28;19916;-86
2021/03/24 07:20:28;;;;;;;;;;;;;;;9.66;40.63;101510.34;5090842;28;19920;-87
2021/03/24 07:23:21;;;;;;;;;;;;;;;9.61;40.61;101519.34;5083460;28;19920;-92
2021/03/24 07:26:10;;;;;;;;;;;;;;;9.62;41.18;101517.44;5081481;28;20295;-90
2021/03/24 07:28:54;;;;;;;;;;;;;;;9.58;41.45;101516.41;5079916;28;19916;-89
2021/03/24 07:31:45;;;;;;;;;;;;;;;9.69;40.45;101513.31;5079952;28;19916;-90
2021/03/24 07:34:32;;;;;;;;;;;;;;;9.84;40.07;101509.59;5085750;28;19917;-89
2021/03/24 07:37:20;;;;;;;;;;;;;;;9.82;41.15;101514.50;5083169;28;19916;-89
2021/03/24 07:40:04;;;;;;;;;;;;;;;9.97;40.60;101524.38;5080947;28;19917;-90
2021/03/24 07:43:10;;;;;;;;;;;;;;;10.15;40.11;101516.25;5089316;28;19916;-89
2021/03/24 07:45:58;;;;;;;;;;;;;;;10.26;39.36;101516.94;5085615;28;19916;-89
2021/03/24 07:48:59;;;;;;;;;;;;;;;10.56;38.45;101526.59;5089380;28;19916;-89
2021/03/24 07:52:02;;;;;;;;;;;;;;;10.72;37.43;101520.59;5092075;28;19917;-88
2021/03/24 07:55:00;;;;;;;;;;;;;;;10.81;37.25;101528.91;5082925;28;19916;-88
2021/03/24 07:57:45;;;;;;;;;;;;;;;10.91;37.78;101523.31;5064822;28;20304;-88
2021/03/24 08:00:29;;;;;;;;;;;;;;;10.92;37.98;101522.16;5064978;28;19917;-89
2021/03/24 08:03:17;;;;;;;;;;;;;;;11.33;36.20;101524.19;5067654;28;19925;-88
2021/03/24 08:06:12;;;;;;;;;;;;;;;11.43;36.12;101535.69;5056144;28;19916;-89
2021/03/24 08:09:02;;;;;;;;;;;;;;;11.90;34.36;101531.81;5083694;28;19916;-88
2021/03/24 08:11:54;;;;;;;;;;;;;;;11.85;34.52;101531.94;5088267;28;19916;-89
2021/03/24 08:14:55;;;;;;;;;;;;;;;11.93;34.78;101533.97;5067693;28;19917;-87
2021/03/24 08:18:02;;;;;;;;;;;;;;;12.06;34.83;101529.59;5084813;28;19920;-87
2021/03/24 08:20:54;;;;;;;;;;;;;;;12.47;33.68;101521.31;5084232;28;19917;-87
2021/03/24 08:23:42;;;;;;;;;;;;;;;12.48;33.84;101522.94;5081825;28;19924;-87
2021/03/24 08:26:34;;;;;;;;;;;;;;;12.48;34.28;101528.38;5079913;28;19916;-87
2021/03/24 08:29:18;;;;;;;;;;;;;;;12.43;33.89;101531.25;5081521;28;19925;-87
2021/03/24 08:32:22;;;;;;;;;;;;;;;12.59;33.65;101524.31;5081604;28;19917;-87
2021/03/24 08:35:21;;;;;;;;;;;;;;;12.55;33.10;101526.03;5089908;28;19917;-86
2021/03/24 08:38:15;;;;;;;;;;;;;;;12.49;33.23;101527.28;5084846;28;19916;-90
2021/03/24 08:41:13;;;;;;;;;;;;;;;12.76;32.19;101524.44;5065753;28;19921;-85
2021/03/24 08:44:02;;;;;;;;;;;;;;;13.31;32.09;101535.09;5062299;28;19921;-89
2021/03/24 08:46:46;;;;;;;;;;;;;;;13.14;32.17;101532.28;5060598;28;19917;-88
2021/03/24 08:49:33;;;;;;;;;;;;;;;13.23;32.34;101516.75;5077808;28;20384;-88
2021/03/24 08:52:34;;;;;;;;;;;;;;;13.42;31.97;101525.50;5085592;28;19916;-88
2021/03/24 08:55:33;;;;;;;;;;;;;;;13.42;31.37;101521.97;5084738;28;19917;-89
2021/03/24 08:58:32;;;;;;;;;;;;;;;13.76;30.86;101524.06;5081865;28;19917;-91
2021/03/24 09:01:34;;;;;;;;;;;;;;;13.70;30.96;101524.19;5065479;28;19917;-89
2021/03/24 09:04:27;;;;;;;;;;;;;;;14.13;29.70;101526.22;5077737;28;19920;-88
2021/03/24 09:07:33;;;;;;;;;;;;;;;13.84;30.17;101515.06;5077386;28;19917;-89
2021/03/24 09:10:47;;;;;;;;;;;;;;;13.87;30.94;101520.69;5076404;28;19916;-89
2021/03/24 09:13:50;;;;;;;;;;;;;;;13.96;30.41;101512.53;5055641;28;19920;-88
2021/03/24 09:16:35;;;;;;;;;;;;;;;14.19;29.74;101515.94;5079395;28;19917;-88
2021/03/24 09:19:30;;;;;;;;;;;;;;;14.01;30.43;101524.13;5080667;28;19916;-88
2021/03/24 09:22:24;;;;;;;;;;;;;;;14.52;29.56;101520.69;5078358;28;19920;-89
2021/03/24 09:25:17;;;;;;;;;;;;;;;14.33;29.60;101520.13;5072189;28;19924;-89
2021/03/24 09:28:21;;;;;;;;;;;;;;;14.69;32.88;101524.53;5064432;28;19917;-89
2021/03/24 09:31:07;;;;;;;;;;;;;;;14.94;33.15;101515.47;5064106;28;19917;-89
2021/03/24 09:33:52;;;;;;;;;;;;;;;15.24;32.48;101524.59;5062376;28;20380;-89
2021/03/24 09:36:43;;;;;;;;;;;;;;;15.21;27.69;101520.59;5057098;28;19916;-88
2021/03/24 09:39:31;;;;;;;;;;;;;;;15.05;28.14;101514.00;5062460;28;19921;-87
2021/03/24 09:42:18;;;;;;;;;;;;;;;15.04;28.93;101509.66;5077556;28;19920;-88
2021/03/24 09:45:13;;;;;;;;;;;;;;;15.28;27.68;101509.13;5077932;28;19920;-88
2021/03/24 09:48:08;;;;;;;;;;;;;;;15.35;27.37;101510.22;5080559;28;20300;-88
2021/03/24 09:50:55;;;;;;;;;;;;;;;15.78;28.63;101512.00;5077277;28;19920;-88
2021/03/24 09:53:41;;;;;;;;;;;;;;;15.90;28.55;101508.56;5082654;28;19921;-87
2021/03/24 09:56:26;;;;;;;;;;;;;;;15.99;29.04;101504.63;5078985;28;20223;-88
2021/03/24 09:59:22;;;;;;;;;;;;;;;16.06;26.49;101510.38;5080132;28;19920;-87
2021/03/24 10:02:12;;;;;;;;;;;;;;;15.91;26.42;101505.47;5083017;28;19920;-88
2021/03/24 10:05:06;;;;;;;;;;;;;;;16.18;25.57;101509.66;5079421;28;19950;-86
2021/03/24 10:07:58;;;;;;;;;;;;;;;17.25;26.42;101504.19;5077121;28;19920;-90
2021/03/24 10:10:45;;;;;;;;;;;;;;;18.16;25.02;101504.81;5083292;28;20327;-87
2021/03/24 10:13:33;;;;;;;;;;;;;;;18.38;25.28;101502.34;5078282;28;19921;-88
2021/03/24 10:16:21;;;;;;;;;;;;;;;17.68;24.06;101500.94;5057515;28;19917;-87
2021/03/24 10:19:06;;;;;;;;;;;;;;;17.15;24.92;101490.91;5060482;28;19917;-88
2021/03/24 10:21:56;;;;;;;;;;;;;;;16.54;26.32;101495.34;5059322;28;19917;-87
2021/03/24 10:24:43;;;;;;;;;;;;;;;16.15;25.79;101488.41;5069239;28;20327;-89
2021/03/24 10:27:29;;;;;;;;;;;;;;;16.23;27.55;101491.06;5072555;28;19920;-88
2021/03/24 10:30:13;;;;;;;;;;;;;;;16.06;27.11;101485.69;5067059;28;19917;-88
2021/03/24 10:33:04;;;;;;;;;;;;;;;16.12;26.35;101487.09;5069760;28;19917;-89
2021/03/24 10:35:57;;;;;;;;;;;;;;;16.13;26.10;101485.16;5083320;28;20376;-89
2021/03/24 10:38:51;;;;;;;;;;;;;;;15.94;27.00;101482.06;5081981;28;19916;-87
2021/03/24 10:41:43;;;;;;;;;;;;;;;15.83;27.01;101478.91;5087699;28;20384;-89
2021/03/24 10:44:37;;;;;;;;;;;;;;;15.95;26.60;101473.50;5083832;28;19921;-89
2021/03/24 10:47:31;;;;;;;;;;;;;;;16.30;26.29;101473.28;5081060;28;19920;-89
2021/03/24 10:50:22;;;;;;;;;;;;;;;16.34;26.19;101474.19;5087072;28;19917;-90
2021/03/24 10:53:16;;;;;;;;;;;;;;;16.33;25.48;101467.91;5084921;28;19917;-89
2021/03/24 10:56:01;;;;;;;;;;;;;;;16.34;25.30;101464.03;5080297;28;19921;-88
2021/03/24 10:58:56;;;;;;;;;;;;;;;16.29;25.66;101457.94;5085653;28;20296;-90
2021/03/24 11:01:50;;;;;;;;;;;;;;;16.53;29.44;101455.28;5084260;28;19920;-90
2021/03/24 11:04:42;;;;;;;;;;;;;;;16.57;26.82;101456.22;5112588;22;20415;-84
2021/03/24 11:07:33;;;;;;;;;;;;;;;16.66;25.53;101448.72;5102390;28;19919;-80
2021/03/24 11:10:37;;;;;;;;;;;;;;;16.65;25.17;101445.22;5115184;28;19916;-81
2021/03/24 11:13:25;;;;;;;;;;;;;;;16.44;25.61;101435.34;5118893;28;19916;-81
2021/03/24 11:16:14;;;;;;;;;;;;;;;16.63;25.76;101443.91;5090939;28;19983;-81
2021/03/24 11:19:17;;;;;;;;;;;;;;;16.77;25.26;101446.34;5098543;28;19916;-80
2021/03/24 11:22:01;;;;;;;;;;;;;;;16.83;25.68;101440.31;5097501;28;19916;-81
2021/03/24 11:24:49;;;;;;;;;;;;;;;16.79;25.13;101433.91;5091869;28;19923;-80
2021/03/24 11:27:39;;;;;;;;;;;;;;;16.84;27.24;101433.69;5094997;28;19920;-80
2021/03/24 11:30:27;;;;;;;;;;;;;;;17.02;25.42;101437.84;5094771;28;19916;-78
2021/03/24 11:33:11;;;;;;;;;;;;;;;17.17;25.26;101433.63;5091445;28;20298;-80
2021/03/24 11:36:02;;;;;;;;;;;;;;;17.33;25.00;101431.81;5093760;28;19924;-81
2021/03/24 11:38:47;;;;;;;;;;;;;;;17.36;24.59;101428.38;5093844;28;19916;-80
2021/03/24 11:41:36;;;;;;;;;;;;;;;17.28;25.12;101422.97;5095351;28;19916;-80
2021/03/24 11:44:23;;;;;;;;;;;;;;;17.22;25.01;101421.63;5097067;28;19920;-82
2021/03/24 11:47:08;;;;;;;;;;;;;;;17.20;25.04;101415.66;5085098;28;19924;-80
2021/03/24 11:50:05;;;;;;;;;;;;;;;17.45;24.66;101409.81;5090944;28;19916;-80
2021/03/24 11:52:53;;;;;;;;;;;;;;;17.61;24.11;101407.22;5094192;28;21279;-79
2021/03/24 11:55:37;;;;;;;;;;;;;;;17.61;23.98;101411.91;5090776;28;19917;-81
2021/03/24 11:58:41;;;;;;;;;;;;;;;17.88;23.52;101400.94;5081184;28;19920;-81
2021/03/24 12:01:52;;;;;;;;;;;;;;;17.83;23.75;101386.63;5092789;28;19924;-80
2021/03/24 12:04:55;;;;;;;;;;;;;;;17.99;23.93;101394.97;5076990;28;19928;-81
2021/03/24 12:08:03;;;;;;;;;;;;;;;18.20;27.88;101384.56;5096089;28;19917;-80
2021/03/24 12:10:58;;;;;;;;;;;;;;;18.46;23.70;101373.09;5092360;28;19924;-80
2021/03/24 12:13:43;;;;;;;;;;;;;;;18.70;29.37;101370.22;5093074;28;20376;-81
2021/03/24 12:16:38;;;;;;;;;;;;;;;18.61;26.37;101370.41;5097166;28;20296;-82
2021/03/24 12:19:36;;;;;;;;;;;;;;;18.60;28.86;101368.78;5100393;28;19916;-80
2021/03/24 12:22:26;;;;;;;;;;;;;;;18.84;26.28;101364.28;5089292;28;19916;-79
2021/03/24 12:25:11;;;;;;;;;;;;;;;18.66;24.17;101361.06;5090098;28;19920;-81
2021/03/24 12:27:58;;;;;;;;;;;;;;;18.79;26.14;101355.13;5100084;28;19916;-79
2021/03/24 12:30:44;;;;;;;;;;;;;;;18.93;27.21;101360.22;5099618;28;19916;-79
2021/03/24 12:33:30;;;;;;;;;;;;;;;18.56;22.71;101347.81;5099777;28;19916;-80
2021/03/24 12:36:21;;;;;;;;;;;;;;;18.61;23.80;101353.88;5099175;28;19916;-80
2021/03/24 12:39:08;;;;;;;;;;;;;;;18.41;22.38;101341.09;5100131;28;19916;-80
2021/03/24 12:41:54;;;;;;;;;;;;;;;18.56;23.88;101343.13;5085006;28;19917;-80
2021/03/24 12:44:42;;;;;;;;;;;;;;;18.92;26.86;101349.53;5079620;28;20189;-79
2021/03/24 12:47:38;;;;;;;;;;;;;;;18.65;23.79;101340.97;5079174;28;19925;-79
2021/03/24 12:50:26;;;;;;;;;;;;;;;18.48;23.67;101333.03;5088494;28;19916;-79
2021/03/24 12:53:14;;;;;;;;;;;;;;;18.79;27.07;101327.56;5087022;28;19916;-81
2021/03/24 12:56:25;;;;;;;;;;;;;;;18.97;26.07;101321.69;5079263;28;19916;-79
2021/03/24 12:59:13;;;;;;;;;;;;;;;19.02;24.59;101313.97;5084273;28;19916;-79
2021/03/24 13:01:57;;;;;;;;;;;;;;;18.72;22.50;101313.63;5095752;28;19916;-77
2021/03/24 13:04:59;;;;;;;;;;;;;;;19.17;26.69;101313.13;5093175;28;19920;-77
2021/03/24 13:08:02;;;;;;;;;;;;;;;19.27;26.81;101310.97;5096308;28;19916;-77
2021/03/24 13:10:53;;;;;;;;;;;;;;;19.14;25.16;101302.03;5093373;28;20406;-79
2021/03/24 13:13:56;;;;;;;;;;;;;;;19.23;23.84;101297.13;5097180;28;20303;-79
2021/03/24 13:16:44;;;;;;;;;;;;;;;19.19;22.13;101290.72;5093822;28;20390;-78
2021/03/24 13:19:41;;;;;;;;;;;;;;;19.20;22.46;101295.06;5092172;28;19916;-78
2021/03/24 13:22:30;;;;;;;;;;;;;;;19.20;22.29;101284.03;5098926;28;19916;-78
2021/03/24 13:25:15;;;;;;;;;;;;;;;19.21;22.28;101285.63;5093636;28;19920;-79
2021/03/24 13:28:18;;;;;;;;;;;;;;;19.25;21.98;101292.03;5097634;28;19916;-77
2021/03/24 13:31:03;;;;;;;;;;;;;;;19.29;22.25;101281.09;5094876;28;19916;-78
2021/03/24 13:33:59;;;;;;;;;;;;;;;19.51;24.53;101277.66;5091337;28;19916;-78
2021/03/24 13:36:48;;;;;;;;;;;;;;;19.53;23.42;101278.09;5096282;28;19916;-79
2021/03/24 13:39:38;;;;;;;;;;;;;;;19.56;22.18;101274.59;5092447;28;19921;-79
2021/03/24 13:42:23;;;;;;;;;;;;;;;19.79;24.33;101269.16;5090209;28;19923;-78
2021/03/24 13:45:38;;;;;;;;;;;;;;;19.83;23.41;101261.75;5094258;28;20380;-79
2021/03/24 13:48:35;;;;;;;;;;;;;;;20.00;27.19;101261.31;5087607;28;19916;-78
2021/03/24 13:51:22;;;;;;;;;;;;;;;20.30;25.19;101255.94;5096912;28;19916;-81
2021/03/24 13:54:13;;;;;;;;;;;;;;;20.37;27.53;101247.78;5094926;28;19920;-81
2021/03/24 13:57:28;;;;;;;;;;;;;;;20.47;26.94;101253.50;5099488;28;20287;-83
2021/03/24 14:00:19;;;;;;;;;;;;;;;20.23;22.16;101239.22;5103493;28;19916;-84
2021/03/24 14:03:22;;;;;;;;;;;;;;;20.17;21.40;101238.72;5098209;28;19916;-84
2021/03/24 14:06:07;;;;;;;;;;;;;;;20.24;21.21;101227.81;5096835;28;19932;-83
2021/03/24 14:08:52;;;;;;;;;;;;;;;20.33;24.16;101230.38;5098453;28;19916;-81
2021/03/24 14:11:56;;;;;;;;;;;;;;;20.31;21.89;101229.94;5102447;28;20288;-81
2021/03/24 14:15:00;;;;;;;;;;;;;;;20.03;22.23;101216.38;5112593;28;19916;-81
2021/03/24 14:18:03;;;;;;;;;;;;;;;20.20;23.07;101226.16;5096735;28;20295;-81
2021/03/24 14:21:00;;;;;;;;;;;;;;;20.32;22.22;101224.03;5099568;28;19916;-80
2021/03/24 14:24:05;;;;;;;;;;;;;;;20.13;22.57;101218.53;5097029;28;19916;-82
2021/03/24 14:26:50;;;;;;;;;;;;;;;20.16;21.55;101209.53;5099884;28;19920;-82
2021/03/24 14:29:47;;;;;;;;;;;;;;;20.18;22.74;101221.00;5098316;28;19916;-81
2021/03/24 14:32:41;;;;;;;;;;;;;;;20.34;23.68;101218.16;5097541;28;19920;-81
2021/03/24 14:35:52;;;;;;;;;;;;;;;20.36;24.41;101213.06;5091765;28;19916;-81
2021/03/24 14:38:42;;;;;;;;;;;;;;;20.44;23.59;101214.78;5095943;28;19920;-81
2021/03/24 14:41:39;;;;;;;;;;;;;;;20.96;21.42;101219.53;5099997;28;19916;-80
2021/03/24 14:44:50;;;;;;;;;;;;;;;21.50;20.33;101209.97;5081951;28;19928;-80
2021/03/24 14:47:44;;;;;;;;;;;;;;;20.85;20.85;101204.75;5059200;28;19916;-80